sensor_id;sensor_type;location;lat;lon;timestamp;P1;P2;P0
74426;PMS7003;62859;53.906;27.430;2023-04-24T00:01:29;7.3;6.3;4.7
74426;PMS7003;62859;53.906;27.430;2023-04-24T00:06:37;7.7;6;5
74426;PMS7003;62859;53.906;27.430;2023-04-24T00:11:51;6.3;5.8;4.8
74426;PMS7003;62859;53.906;27.430;2023-04-24T00:16:31;7.7;6;4.7
74426;PMS7003;62859;53.906;27.430;2023-04-24T00:21:39;5.7;5;4.3
74426;PMS7003;62859;53.906;27.430;2023-04-24T00:26:39;7.3;7.3;6
74426;PMS7003;62859;53.906;27.430;2023-04-24T00:31:29;6;6;5
74426;PMS7003;62859;53.906;27.430;2023-04-24T00:36:27;8.7;6.7;5
74426;PMS7003;62859;53.906;27.430;2023-04-24T00:41:07;7.3;6.7;5.7
74426;PMS7003;62859;53.906;27.430;2023-04-24T00:46:49;7.7;6.3;5.3
74426;PMS7003;62859;53.906;27.430;2023-04-24T00:51:41;7.3;6.5;4.5
74426;PMS7003;62859;53.906;27.430;2023-04-24T00:56:07;5.7;5.7;4.7
74426;PMS7003;62859;53.906;27.430;2023-04-24T01:01:51;6.7;6.3;4.7
74426;PMS7003;62859;53.906;27.430;2023-04-24T01:06:29;6;6;5.3
74426;PMS7003;62859;53.906;27.430;2023-04-24T01:11:07;5.3;5.3;4.7
74426;PMS7003;62859;53.906;27.430;2023-04-24T01:16:51;6.3;6.3;5.3
74426;PMS7003;62859;53.906;27.430;2023-04-24T01:21:51;7.3;6.7;5.3
74426;PMS7003;62859;53.906;27.430;2023-04-24T01:26:19;6.8;6.3;5
74426;PMS7003;62859;53.906;27.430;2023-04-24T01:31:45;6.3;5.7;4.7
74426;PMS7003;62859;53.906;27.430;2023-04-24T01:36:51;8;6.3;5
74426;PMS7003;62859;53.906;27.430;2023-04-24T01:41:43;5.3;4.7;4
74426;PMS7003;62859;53.906;27.430;2023-04-24T01:46:07;6.3;6;4.5
74426;PMS7003;62859;53.906;27.430;2023-04-24T01:51:09;7.3;6.7;5.3
74426;PMS7003;62859;53.906;27.430;2023-04-24T01:56:39;6;5.7;5
74426;PMS7003;62859;53.906;27.430;2023-04-24T02:01:37;6;5.3;4.3
74426;PMS7003;62859;53.906;27.430;2023-04-24T02:06:07;7.8;6.8;5.3
74426;PMS7003;62859;53.906;27.430;2023-04-24T02:11:39;7;7;5.3
74426;PMS7003;62859;53.906;27.430;2023-04-24T02:16:37;6;6;4.3
74426;PMS7003;62859;53.906;27.430;2023-04-24T02:21:07;6;5.7;5
74426;PMS7003;62859;53.906;27.430;2023-04-24T02:26:17;6;6;5.3
74426;PMS7003;62859;53.906;27.430;2023-04-24T02:31:35;6.7;6.3;4.3
74426;PMS7003;62859;53.906;27.430;2023-04-24T02:36:15;8;7.3;5.7
74426;PMS7003;62859;53.906;27.430;2023-04-24T02:41:41;6.3;6.3;5
74426;PMS7003;62859;53.906;27.430;2023-04-24T02:46:43;7.8;7.3;5.5
74426;PMS7003;62859;53.906;27.430;2023-04-24T02:51:17;7.7;7.3;5.7
74426;PMS7003;62859;53.906;27.430;2023-04-24T02:56:51;5.7;5.7;4.7
74426;PMS7003;62859;53.906;27.430;2023-04-24T03:01:29;7.3;6.8;5.3
74426;PMS7003;62859;53.906;27.430;2023-04-24T03:06:41;5.7;5.7;5
74426;PMS7003;62859;53.906;27.430;2023-04-24T03:11:39;8;7.3;5.3
74426;PMS7003;62859;53.906;27.430;2023-04-24T03:16:51;7.3;6.3;5
74426;PMS7003;62859;53.906;27.430;2023-04-24T03:21:07;7;7;5.8
74426;PMS7003;62859;53.906;27.430;2023-04-24T03:26:37;7.3;7;5.7
74426;PMS7003;62859;53.906;27.430;2023-04-24T03:31:37;7.3;6.7;5
74426;PMS7003;62859;53.906;27.430;2023-04-24T03:36:43;7;6.3;4.7
74426;PMS7003;62859;53.906;27.430;2023-04-24T03:41:13;5.8;5.8;5
74426;PMS7003;62859;53.906;27.430;2023-04-24T03:46:13;9.3;8;5.7
74426;PMS7003;62859;53.906;27.430;2023-04-24T03:51:49;7.3;6;4.3
74426;PMS7003;62859;53.906;27.430;2023-04-24T03:56:51;6.3;6.3;5
74426;PMS7003;62859;53.906;27.430;2023-04-24T04:01:07;7.3;6.5;5.5
74426;PMS7003;62859;53.906;27.430;2023-04-24T04:06:49;7.7;7.3;5.7
74426;PMS7003;62859;53.906;27.430;2023-04-24T04:11:29;9.3;7.7;6
74426;PMS7003;62859;53.906;27.430;2023-04-24T04:16:29;8.3;7.3;6
74426;PMS7003;62859;53.906;27.430;2023-04-24T04:21:17;6.8;6.5;5.3
74426;PMS7003;62859;53.906;27.430;2023-04-24T04:26:51;7.3;7.3;6
74426;PMS7003;62859;53.906;27.430;2023-04-24T04:31:07;7.7;6.3;5.7
74426;PMS7003;62859;53.906;27.430;2023-04-24T04:36:51;8.7;8;6
74426;PMS7003;62859;53.906;27.430;2023-04-24T04:41:51;7.8;7.5;5.8
74426;PMS7003;62859;53.906;27.430;2023-04-24T04:46:19;9.3;8.7;6
74426;PMS7003;62859;53.906;27.430;2023-04-24T04:51:25;9.7;7.7;6
74426;PMS7003;62859;53.906;27.430;2023-04-24T04:56:43;7.8;6.5;5.3
74426;PMS7003;62859;53.906;27.430;2023-04-24T05:01:21;8.3;7.3;5.7
74426;PMS7003;62859;53.906;27.430;2023-04-24T05:06:35;6.7;5.3;4.3
74426;PMS7003;62859;53.906;27.430;2023-04-24T05:11:19;6.7;6.7;5.3
74426;PMS7003;62859;53.906;27.430;2023-04-24T05:16:51;8.5;7.3;5.5
74426;PMS7003;62859;53.906;27.430;2023-04-24T05:21:39;6.3;6;5
74426;PMS7003;62859;53.906;27.430;2023-04-24T05:26:27;7.3;7;5
74426;PMS7003;62859;53.906;27.430;2023-04-24T05:31:31;8;8;6
74426;PMS7003;62859;53.906;27.430;2023-04-24T05:36:37;8.3;7.5;5.8
74426;PMS7003;62859;53.906;27.430;2023-04-24T05:41:07;7;7;5.7
74426;PMS7003;62859;53.906;27.430;2023-04-24T05:46:39;7.3;6.7;5.7
74426;PMS7003;62859;53.906;27.430;2023-04-24T05:51:41;7;7;6
74426;PMS7003;62859;53.906;27.430;2023-04-24T05:56:07;7.3;6.5;5.5
74426;PMS7003;62859;53.906;27.430;2023-04-24T06:01:51;6.7;6.3;5.3
74426;PMS7003;62859;53.906;27.430;2023-04-24T06:06:27;8;7;5.7
74426;PMS7003;62859;53.906;27.430;2023-04-24T06:11:17;9.3;6.7;5
74426;PMS7003;62859;53.906;27.430;2023-04-24T06:16:35;7.5;6;5
74426;PMS7003;62859;53.906;27.430;2023-04-24T06:21:49;8;7;5.7
74426;PMS7003;62859;53.906;27.430;2023-04-24T06:26:29;6.7;5;4.3
74426;PMS7003;62859;53.906;27.430;2023-04-24T06:31:21;8.3;6.7;5
74426;PMS7003;62859;53.906;27.430;2023-04-24T06:36:23;7.3;6.8;5.8
74426;PMS7003;62859;53.906;27.430;2023-04-24T06:41:31;7;7;5.3
74426;PMS7003;62859;53.906;27.430;2023-04-24T06:46:25;8.7;8.3;6
74426;PMS7003;62859;53.906;27.430;2023-04-24T06:51:07;7;6.8;6
74426;PMS7003;62859;53.906;27.430;2023-04-24T06:56:45;7.3;7.3;6
74426;PMS7003;62859;53.906;27.430;2023-04-24T07:01:47;7.3;6.7;5.3
74426;PMS7003;62859;53.906;27.430;2023-04-24T07:06:19;8;6.7;5.3
74426;PMS7003;62859;53.906;27.430;2023-04-24T07:11:47;7.3;7.3;5.8
74426;PMS7003;62859;53.906;27.430;2023-04-24T07:16:27;8;6.7;6
74426;PMS7003;62859;53.906;27.430;2023-04-24T07:21:07;10;7.3;6
74426;PMS7003;62859;53.906;27.430;2023-04-24T07:26:29;10.3;8.7;6.7
74426;PMS7003;62859;53.906;27.430;2023-04-24T07:31:53;9.5;9;7.5
74426;PMS7003;62859;53.906;27.430;2023-04-24T07:36:07;10.3;8.3;7.3
74426;PMS7003;62859;53.906;27.430;2023-04-24T07:41:17;9.3;8.7;6.3
74426;PMS7003;62859;53.906;27.430;2023-04-24T07:46:51;8.3;7.3;6
74426;PMS7003;62859;53.906;27.430;2023-04-24T07:51:53;6.8;6;4.8
74426;PMS7003;62859;53.906;27.430;2023-04-24T07:56:13;5.7;5.3;4.7
74426;PMS7003;62859;53.906;27.430;2023-04-24T08:01:07;7.3;6.7;5.7
74426;PMS7003;62859;53.906;27.430;2023-04-24T08:06:53;4.7;4.7;3.7
74426;PMS7003;62859;53.906;27.430;2023-04-24T08:11:31;5.5;5;3.5
74426;PMS7003;62859;53.906;27.430;2023-04-24T08:16:29;2.3;2.3;2.3
74426;PMS7003;62859;53.906;27.430;2023-04-24T08:21:17;4;4;3.3
74426;PMS7003;62859;53.906;27.430;2023-04-24T08:26:39;12.3;11.3;9.3
74426;PMS7003;62859;53.906;27.430;2023-04-24T08:31:29;3.5;3.5;2
74426;PMS7003;62859;53.906;27.430;2023-04-24T08:36:39;2.7;2.7;2.7
74426;PMS7003;62859;53.906;27.430;2023-04-24T08:41:07;2.7;2.7;2
74426;PMS7003;62859;53.906;27.430;2023-04-24T08:46:19;3.3;3.3;2.3
74426;PMS7003;62859;53.906;27.430;2023-04-24T08:51:43;3;2;2
74426;PMS7003;62859;53.906;27.430;2023-04-24T08:56:43;5;3;2.7
74426;PMS7003;62859;53.906;27.430;2023-04-24T09:01:07;2.7;2.7;2
74426;PMS7003;62859;53.906;27.430;2023-04-24T09:06:51;2.5;2.5;2.5
74426;PMS7003;62859;53.906;27.430;2023-04-24T09:11:27;2.7;2;1.7
74426;PMS7003;62859;53.906;27.430;2023-04-24T09:16:17;1.7;1.7;1
74426;PMS7003;62859;53.906;27.430;2023-04-24T09:21:37;2.3;2.3;1
74426;PMS7003;62859;53.906;27.430;2023-04-24T09:26:55;2.8;2.3;1.5
74426;PMS7003;62859;53.906;27.430;2023-04-24T09:31:17;2;1.7;1.3
74426;PMS7003;62859;53.906;27.430;2023-04-24T09:36:39;1.7;1.7;1.3
74426;PMS7003;62859;53.906;27.430;2023-04-24T09:41:43;2;2;1.7
74426;PMS7003;62859;53.906;27.430;2023-04-24T09:46:41;3.5;3;1.8
74426;PMS7003;62859;53.906;27.430;2023-04-24T09:51:33;2;2;1.7
74426;PMS7003;62859;53.906;27.430;2023-04-24T09:56:25;3;2.3;2
74426;PMS7003;62859;53.906;27.430;2023-04-24T10:01:49;2;2;1.7
74426;PMS7003;62859;53.906;27.430;2023-04-24T10:06:52;2.3;2;1.5
74426;PMS7003;62859;53.906;27.430;2023-04-24T10:11:31;3.3;3;2
74426;PMS7003;62859;53.906;27.430;2023-04-24T10:16:15;3;3;1.7
74426;PMS7003;62859;53.906;27.430;2023-04-24T10:21:29;3.3;3.3;2.3
74426;PMS7003;62859;53.906;27.430;2023-04-24T10:26:07;2.8;2.5;2
74426;PMS7003;62859;53.906;27.430;2023-04-24T10:31:31;5;4.3;2.7
74426;PMS7003;62859;53.906;27.430;2023-04-24T10:36:51;3.3;2.7;1.7
74426;PMS7003;62859;53.906;27.430;2023-04-24T10:41:19;3;2.5;1.8
74426;PMS7003;62859;53.906;27.430;2023-04-24T10:46:19;4.7;3.7;2.7
74426;PMS7003;62859;53.906;27.430;2023-04-24T10:51:51;3;3;2.3
74426;PMS7003;62859;53.906;27.430;2023-04-24T10:56:15;3.7;3;2
74426;PMS7003;62859;53.906;27.430;2023-04-24T11:01:37;3.8;2.5;2
74426;PMS7003;62859;53.906;27.430;2023-04-24T11:06:07;4;3.3;2.3
74426;PMS7003;62859;53.906;27.430;2023-04-24T11:11:44;3;3;2
74426;PMS7003;62859;53.906;27.430;2023-04-24T11:16:39;3.3;3;2.7
74426;PMS7003;62859;53.906;27.430;2023-04-24T11:21:36;3.3;2.8;2.3
74426;PMS7003;62859;53.906;27.430;2023-04-24T11:26:29;3;3;2
74426;PMS7003;62859;53.906;27.430;2023-04-24T11:31:39;3.7;3;2.7
74426;PMS7003;62859;53.906;27.430;2023-04-24T11:36:07;4;3.3;2.7
74426;PMS7003;62859;53.906;27.430;2023-04-24T11:41:29;5;4;3
74426;PMS7003;62859;53.906;27.430;2023-04-24T11:46:07;3.7;3.3;2
74426;PMS7003;62859;53.906;27.430;2023-04-24T11:51:25;3.7;3;2.3
74426;PMS7003;62859;53.906;27.430;2023-04-24T11:56:49;3.7;3.3;2.3
74426;PMS7003;62859;53.906;27.430;2023-04-24T12:01:43;2.8;2.5;2
74426;PMS7003;62859;53.906;27.430;2023-04-24T12:06:19;2.7;2.7;2.3
74426;PMS7003;62859;53.906;27.430;2023-04-24T12:11:52;3.7;3.7;2.7
74426;PMS7003;62859;53.906;27.430;2023-04-24T12:16:29;4.3;3.3;2.7
74426;PMS7003;62859;53.906;27.430;2023-04-24T12:21:29;3;2.8;1.8
74426;PMS7003;62859;53.906;27.430;2023-04-24T12:26:41;3;2.7;1.7
74426;PMS7003;62859;53.906;27.430;2023-04-24T12:31:53;4.3;3.7;2.3
74426;PMS7003;62859;53.906;27.430;2023-04-24T12:36:20;3.8;2.5;2.3
74426;PMS7003;62859;53.906;27.430;2023-04-24T12:41:54;4;4;3
74426;PMS7003;62859;53.906;27.430;2023-04-24T12:46:51;4;3.3;2
74426;PMS7003;62859;53.906;27.430;2023-04-24T12:51:09;4.3;3.7;3.3
74426;PMS7003;62859;53.906;27.430;2023-04-24T12:56:39;4.5;3.5;2.3
74426;PMS7003;62859;53.906;27.430;2023-04-24T13:01:43;3.3;3;2.3
74426;PMS7003;62859;53.906;27.430;2023-04-24T13:06:39;3.7;3.7;2.3
74426;PMS7003;62859;53.906;27.430;2023-04-24T13:11:17;3.3;2.7;1.7
74426;PMS7003;62859;53.906;27.430;2023-04-24T13:16:07;2.5;2.5;2
74426;PMS7003;62859;53.906;27.430;2023-04-24T13:21:49;4;3.7;2.7
74426;PMS7003;62859;53.906;27.430;2023-04-24T13:26:37;3.7;2.7;2
74426;PMS7003;62859;53.906;27.430;2023-04-24T13:31:07;3.7;2.7;1.7
74426;PMS7003;62859;53.906;27.430;2023-04-24T13:36:31;3;2.8;1.8
74426;PMS7003;62859;53.906;27.430;2023-04-24T13:41:37;2.7;2.7;2
74426;PMS7003;62859;53.906;27.430;2023-04-24T13:46:07;3.3;3;2.7
74426;PMS7003;62859;53.906;27.430;2023-04-24T13:51:29;5.7;4.7;3.3
74426;PMS7003;62859;53.906;27.430;2023-04-24T13:56:41;4.8;3.5;3
74426;PMS7003;62859;53.906;27.430;2023-04-24T14:01:19;4;3.3;2.7
74426;PMS7003;62859;53.906;27.430;2023-04-24T14:06:49;5.3;4.3;3.7
74426;PMS7003;62859;53.906;27.430;2023-04-24T14:11:07;4.7;4.7;3.3
74426;PMS7003;62859;53.906;27.430;2023-04-24T14:16:29;6;4.5;2.8
74426;PMS7003;62859;53.906;27.430;2023-04-24T14:21:37;3.3;3.3;2.3
74426;PMS7003;62859;53.906;27.430;2023-04-24T14:26:49;3;2.3;1.7
74426;PMS7003;62859;53.906;27.430;2023-04-24T14:31:17;4.3;3.5;3
74426;PMS7003;62859;53.906;27.430;2023-04-24T14:36:41;4;3.3;3
74426;PMS7003;62859;53.906;27.430;2023-04-24T14:41:39;6.3;5;3.7
74426;PMS7003;62859;53.906;27.430;2023-04-24T14:46:43;4.7;4;2.7
74426;PMS7003;62859;53.906;27.430;2023-04-24T14:51:33;5.5;4.3;3.8
74426;PMS7003;62859;53.906;27.430;2023-04-24T14:56:19;4;4;3
74426;PMS7003;62859;53.906;27.430;2023-04-24T15:01:49;5;4.3;3
74426;PMS7003;62859;53.906;27.430;2023-04-24T15:06:51;3;3;2.3
74426;PMS7003;62859;53.906;27.430;2023-04-24T15:11:19;6;5;4
74426;PMS7003;62859;53.906;27.430;2023-04-24T15:16:51;4.7;4;3.3
74426;PMS7003;62859;53.906;27.430;2023-04-24T15:21:29;4.3;3.7;3
74426;PMS7003;62859;53.906;27.430;2023-04-24T15:26:17;5.3;4.7;2.7
74426;PMS7003;62859;53.906;27.430;2023-04-24T15:31:29;4.8;4.8;3.8
74426;PMS7003;62859;53.906;27.430;2023-04-24T15:36:53;6;4.3;3.3
74426;PMS7003;62859;53.906;27.430;2023-04-24T15:41:17;6.7;5.7;4.3
74426;PMS7003;62859;53.906;27.430;2023-04-24T15:46:27;4.7;4;3.3
74426;PMS7003;62859;53.906;27.430;2023-04-24T15:51:53;6.5;5.8;4
74426;PMS7003;62859;53.906;27.430;2023-04-24T15:56:29;5.7;5.3;4
74426;PMS7003;62859;53.906;27.430;2023-04-24T16:01:39;6.3;5.7;4
74426;PMS7003;62859;53.906;27.430;2023-04-24T16:06:07;7;6.7;5
74426;PMS7003;62859;53.906;27.430;2023-04-24T16:11:41;5;4.8;3.5
74426;PMS7003;62859;53.906;27.430;2023-04-24T16:16:37;5.7;4.7;4
74426;PMS7003;62859;53.906;27.430;2023-04-24T16:21:29;6.3;6;5
74426;PMS7003;62859;53.906;27.430;2023-04-24T16:26:29;5.8;5.5;4
74426;PMS7003;62859;53.906;27.430;2023-04-24T16:31:37;5.7;5.3;4
74426;PMS7003;62859;53.906;27.430;2023-04-24T16:36:07;8.7;6.7;5.7
74426;PMS7003;62859;53.906;27.430;2023-04-24T16:41:29;7;6.7;5.7
74426;PMS7003;62859;53.906;27.430;2023-04-24T16:46:07;8.5;7.8;5.8
74426;PMS7003;62859;53.906;27.430;2023-04-24T16:51:25;8.7;8;6.7
74426;PMS7003;62859;53.906;27.430;2023-04-24T16:56:41;8;7.3;6.3
74426;PMS7003;62859;53.906;27.430;2023-04-24T17:01:43;9.7;7.3;6.3
74426;PMS7003;62859;53.906;27.430;2023-04-24T17:06:13;8.3;7.8;6.3
74426;PMS7003;62859;53.906;27.430;2023-04-24T17:11:51;7.7;7.7;7.3
74426;PMS7003;62859;53.906;27.430;2023-04-24T17:16:29;13.3;13;12
74426;PMS7003;62859;53.906;27.430;2023-04-24T17:21:07;9;9;7.3
74426;PMS7003;62859;53.906;27.430;2023-04-24T17:26:27;7;6;4.5
74426;PMS7003;62859;53.906;27.430;2023-04-24T17:31:39;6.3;5.7;5
74426;PMS7003;62859;53.906;27.430;2023-04-24T17:36:31;8.3;7;5.7
74426;PMS7003;62859;53.906;27.430;2023-04-24T17:41:39;7.7;6.7;5.3
74426;PMS7003;62859;53.906;27.430;2023-04-24T17:46:39;8.8;7.8;5.8
74426;PMS7003;62859;53.906;27.430;2023-04-24T17:51:43;7.7;7.7;6.3
74426;PMS7003;62859;53.906;27.430;2023-04-24T17:56:27;7.3;7;5.7
74426;PMS7003;62859;53.906;27.430;2023-04-24T18:01:19;11.5;10.5;7.5
74426;PMS7003;62859;53.906;27.430;2023-04-24T18:06:53;8.3;7.7;6
74426;PMS7003;62859;53.906;27.430;2023-04-24T18:11:39;8;8;6
74426;PMS7003;62859;53.906;27.430;2023-04-24T18:16:19;8.7;7.7;6.3
74426;PMS7003;62859;53.906;27.430;2023-04-24T18:21:53;9.5;8.3;6.5
74426;PMS7003;62859;53.906;27.430;2023-04-24T18:26:17;10;9;7
74426;PMS7003;62859;53.906;27.430;2023-04-24T18:31:07;10;8.3;6.7
74426;PMS7003;62859;53.906;27.430;2023-04-24T18:36:29;9.3;8.3;6.7
74426;PMS7003;62859;53.906;27.430;2023-04-24T18:41:53;7.8;7;5.8
74426;PMS7003;62859;53.906;27.430;2023-04-24T18:46:17;9.3;8.7;6.3
74426;PMS7003;62859;53.906;27.430;2023-04-24T18:51:25;8.7;6.3;5.7
74426;PMS7003;62859;53.906;27.430;2023-04-24T18:56:51;9.7;9;6.7
74426;PMS7003;62859;53.906;27.430;2023-04-24T19:01:39;10;9.5;7
74426;PMS7003;62859;53.906;27.430;2023-04-24T19:06:13;10.3;9.3;7.3
74426;PMS7003;62859;53.906;27.430;2023-04-24T19:11:17;10;8.3;6.7
74426;PMS7003;62859;53.906;27.430;2023-04-24T19:16:49;9.7;9.3;7.3
74426;PMS7003;62859;53.906;27.430;2023-04-24T19:21:37;9.3;8.8;7
74426;PMS7003;62859;53.906;27.430;2023-04-24T19:26:17;8.7;8.7;6.3
74426;PMS7003;62859;53.906;27.430;2023-04-24T19:31:19;11;10;8.3
74426;PMS7003;62859;53.906;27.430;2023-04-24T19:36:15;7.3;7;6
74426;PMS7003;62859;53.906;27.430;2023-04-24T19:41:07;7.8;6.8;5.3
74426;PMS7003;62859;53.906;27.430;2023-04-24T19:46:17;7.3;7.3;5.7
74426;PMS7003;62859;53.906;27.430;2023-04-24T19:51:17;7.7;7.7;6
74426;PMS7003;62859;53.906;27.430;2023-04-24T19:56:19;7.8;7.5;6
74426;PMS7003;62859;53.906;27.430;2023-04-24T20:01:49;7;7;6
74426;PMS7003;62859;53.906;27.430;2023-04-24T20:06:43;8.3;7.7;6
74426;PMS7003;62859;53.906;27.430;2023-04-24T20:11:07;6;6;5
74426;PMS7003;62859;53.906;27.430;2023-04-24T20:16:53;8;7.3;6
74426;PMS7003;62859;53.906;27.430;2023-04-24T20:21:07;7.3;7.3;5.3
74426;PMS7003;62859;53.906;27.430;2023-04-24T20:26:19;7.7;7.3;6.3
74426;PMS7003;62859;53.906;27.430;2023-04-24T20:31:37;7.7;7;5.3
74426;PMS7003;62859;53.906;27.430;2023-04-24T20:36:51;8.3;7.8;6.3
74426;PMS7003;62859;53.906;27.430;2023-04-24T20:41:17;8;6.7;4.7
74426;PMS7003;62859;53.906;27.430;2023-04-24T20:46:49;7.3;6.7;5
74426;PMS7003;62859;53.906;27.430;2023-04-24T20:51:37;9;8.3;5.7
74426;PMS7003;62859;53.906;27.430;2023-04-24T20:56:09;6.3;6.3;5.5
74426;PMS7003;62859;53.906;27.430;2023-04-24T21:01:23;7.3;6.3;5.3
74426;PMS7003;62859;53.906;27.430;2023-04-24T21:06:07;7;7;5.3
74426;PMS7003;62859;53.906;27.430;2023-04-24T21:11:47;7;7;5
74426;PMS7003;62859;53.906;27.430;2023-04-24T21:16:49;8.5;7.5;5.8
74426;PMS7003;62859;53.906;27.430;2023-04-24T21:21:07;8;7.7;6
74426;PMS7003;62859;53.906;27.430;2023-04-24T21:26:49;7.3;6;5
74426;PMS7003;62859;53.906;27.430;2023-04-24T21:31:07;8.7;7.7;6
74426;PMS7003;62859;53.906;27.430;2023-04-24T21:36:09;9.3;7.5;5.8
74426;PMS7003;62859;53.906;27.430;2023-04-24T21:41:31;8.7;7.7;6
74426;PMS7003;62859;53.906;27.430;2023-04-24T21:46:53;9;7.3;6
74426;PMS7003;62859;53.906;27.430;2023-04-24T21:51:19;8.3;8;6.3
74426;PMS7003;62859;53.906;27.430;2023-04-24T21:56:09;7.7;7.3;6.3
74426;PMS7003;62859;53.906;27.430;2023-04-24T22:01:53;7.7;7.3;6
74426;PMS7003;62859;53.906;27.430;2023-04-24T22:06:27;9.3;8.3;6.3
74426;PMS7003;62859;53.906;27.430;2023-04-24T22:11:09;7.5;7.3;6
74426;PMS7003;62859;53.906;27.430;2023-04-24T22:16:20;7.3;7.3;6
74426;PMS7003;62859;53.906;27.430;2023-04-24T22:21:51;7.7;7.3;5.7
74426;PMS7003;62859;53.906;27.430;2023-04-24T22:26:39;7.3;7;5.7
74426;PMS7003;62859;53.906;27.430;2023-04-24T22:31:09;8.3;7;5.8
74426;PMS7003;62859;53.906;27.430;2023-04-24T22:36:31;7.3;6.7;5.7
74426;PMS7003;62859;53.906;27.430;2023-04-24T22:41:41;8;7.7;5.3
74426;PMS7003;62859;53.906;27.430;2023-04-24T22:46:09;8.7;8;6.3
74426;PMS7003;62859;53.906;27.430;2023-04-24T22:51:31;7.3;6.3;5.3
74426;PMS7003;62859;53.906;27.430;2023-04-24T22:56:09;8.3;7;5.7
74426;PMS7003;62859;53.906;27.430;2023-04-24T23:01:09;7.7;6.7;5.7
74426;PMS7003;62859;53.906;27.430;2023-04-24T23:06:41;8.7;7;5.7
74426;PMS7003;62859;53.906;27.430;2023-04-24T23:11:33;7.3;7;5
74426;PMS7003;62859;53.906;27.430;2023-04-24T23:16:09;9;8;6
74426;PMS7003;62859;53.906;27.430;2023-04-24T23:21:45;7.7;6.3;6
74426;PMS7003;62859;53.906;27.430;2023-04-24T23:26:09;8;7.3;6
74426;PMS7003;62859;53.906;27.430;2023-04-24T23:31:21;8.8;7.8;6.3
74426;PMS7003;62859;53.906;27.430;2023-04-24T23:36:39;6;6;5.3
74426;PMS7003;62859;53.906;27.430;2023-04-24T23:41:51;8.3;8;6.3
74426;PMS7003;62859;53.906;27.430;2023-04-24T23:46:21;7.8;7.5;5.5
74426;PMS7003;62859;53.906;27.430;2023-04-24T23:51:51;9;8;6.3
74426;PMS7003;62859;53.906;27.430;2023-04-24T23:56:53;10;8.3;6.7
